createdAt,value
2022-10-12T00:02:20.117Z,5.78
2022-10-12T00:05:21.815Z,5.77
2022-10-12T00:08:24.653Z,5.77
2022-10-12T00:11:27.954Z,5.75
2022-10-12T00:14:29.651Z,5.74
2022-10-12T00:17:31.169Z,5.69
2022-10-12T00:20:32.982Z,5.72
2022-10-12T00:23:36.972Z,5.71
2022-10-12T00:26:38.694Z,5.70
2022-10-12T00:29:41.087Z,5.67
2022-10-12T00:32:42.658Z,5.73
2022-10-12T00:35:44.645Z,5.67
2022-10-12T00:38:48.321Z,5.60
2022-10-12T00:41:50.014Z,5.57
2022-10-12T00:44:52.286Z,5.50
2022-10-12T00:47:55.909Z,5.52
2022-10-12T00:50:58.439Z,5.56
2022-10-12T00:54:04.696Z,5.51
2022-10-12T00:57:07.774Z,5.48
2022-10-12T01:00:10.839Z,5.48
2022-10-12T01:03:14.336Z,5.46
2022-10-12T01:06:16.521Z,5.59
2022-10-12T01:09:19.822Z,5.57
2022-10-12T01:12:22.164Z,5.57
2022-10-12T01:15:27.481Z,5.56
2022-10-12T01:18:32.071Z,5.51
2022-10-12T01:21:37.773Z,5.45
2022-10-12T01:24:45.189Z,5.45
2022-10-12T01:27:48.466Z,5.52
2022-10-12T01:30:55.102Z,5.41
2022-10-12T01:33:58.941Z,5.40
2022-10-12T01:37:02.614Z,5.57
2022-10-12T01:40:10.873Z,5.42
2022-10-12T01:43:12.679Z,5.45
2022-10-12T01:46:32.970Z,5.36
2022-10-12T01:49:36.217Z,5.28
2022-10-12T01:52:43.240Z,5.21
2022-10-12T01:55:48.797Z,5.37
2022-10-12T01:58:57.884Z,5.40
2022-10-12T02:02:04.293Z,5.43
2022-10-12T02:05:12.269Z,5.36
2022-10-12T02:08:17.349Z,5.35
2022-10-12T02:11:20.449Z,5.26
2022-10-12T02:14:23.671Z,5.21
2022-10-12T02:17:25.213Z,5.15
2022-10-12T02:20:28.545Z,5.11
2022-10-12T02:23:30.411Z,5.10
2022-10-12T02:26:33.636Z,5.11
2022-10-12T02:29:37.550Z,5.18
2022-10-12T02:32:43.095Z,5.19
2022-10-12T02:35:50.137Z,5.15
2022-10-12T02:38:55.345Z,5.13
2022-10-12T02:42:02.248Z,5.04
2022-10-12T02:45:05.747Z,4.99
2022-10-12T02:48:08.685Z,4.93
2022-10-12T02:51:12.108Z,4.90
2022-10-12T02:54:13.989Z,4.88
2022-10-12T02:57:15.633Z,4.86
2022-10-12T03:00:17.876Z,4.86
2022-10-12T03:03:19.583Z,4.85
2022-10-12T03:06:22.745Z,4.89
2022-10-12T03:09:24.425Z,4.89
2022-10-12T03:12:26.271Z,4.86
2022-10-12T03:15:28.199Z,4.88
2022-10-12T03:18:29.889Z,4.83
2022-10-12T03:21:33.059Z,4.83
2022-10-12T03:24:34.818Z,4.82
2022-10-12T03:27:36.956Z,4.80
2022-10-12T03:30:38.936Z,4.72
2022-10-12T03:33:42.027Z,4.69
2022-10-12T03:36:45.275Z,4.67
2022-10-12T03:39:47.051Z,4.66
2022-10-12T03:42:48.807Z,4.65
2022-10-12T03:45:50.587Z,4.64
2022-10-12T03:48:52.184Z,4.68
2022-10-12T03:51:55.311Z,4.73
2022-10-12T03:54:56.789Z,4.74
2022-10-12T03:57:58.377Z,4.75
2022-10-12T04:01:00.318Z,4.73
2022-10-12T04:04:02.214Z,4.74
2022-10-12T04:07:05.215Z,4.70
2022-10-12T04:10:07.363Z,4.66
2022-10-12T04:13:08.888Z,4.62
2022-10-12T04:16:10.430Z,4.68
2022-10-12T04:19:12.824Z,4.66
2022-10-12T04:22:16.155Z,4.68
2022-10-12T04:25:18.008Z,4.70
2022-10-12T04:28:19.765Z,4.70
2022-10-12T04:31:21.367Z,4.72
2022-10-12T04:34:23.060Z,4.68
2022-10-12T04:37:28.176Z,4.68
2022-10-12T04:40:30.371Z,4.66
2022-10-12T04:43:32.725Z,4.68
2022-10-12T04:46:39.561Z,4.65
2022-10-12T04:49:41.388Z,4.65
2022-10-12T04:52:44.574Z,4.64
2022-10-12T04:55:46.357Z,4.59
2022-10-12T04:58:48.068Z,4.58
2022-10-12T05:01:49.901Z,4.59
2022-10-12T05:04:52.410Z,4.66
2022-10-12T05:07:55.730Z,4.65
2022-10-12T05:10:59.416Z,4.68
2022-10-12T05:14:01.132Z,4.67
2022-10-12T05:17:03.190Z,4.65
2022-10-12T05:20:05.415Z,4.62
2022-10-12T05:23:11.292Z,4.60
2022-10-12T05:26:12.955Z,4.60
2022-10-12T05:29:14.634Z,4.59
2022-10-12T05:38:50.462Z,4.53
2022-10-12T05:41:55.476Z,4.56
2022-10-12T05:44:57.131Z,4.56
2022-10-12T05:48:01.079Z,4.52
2022-10-12T05:51:02.842Z,4.53
2022-10-12T05:54:07.390Z,4.53
2022-10-12T05:57:09.079Z,4.53
2022-10-12T06:00:11.068Z,4.53
2022-10-12T06:03:14.121Z,4.53
2022-10-12T06:06:17.349Z,4.54
2022-10-12T06:09:20.406Z,4.56
2022-10-12T06:12:22.101Z,4.57
2022-10-12T06:15:24.114Z,4.60
2022-10-12T06:18:28.748Z,4.61
2022-10-12T06:21:34.549Z,4.67
2022-10-12T06:24:38.517Z,4.73
2022-10-12T06:27:40.128Z,4.88
2022-10-12T06:30:43.239Z,4.92
2022-10-12T06:33:44.832Z,4.94
2022-10-12T06:36:46.492Z,5.06
2022-10-12T06:39:49.632Z,5.17
2022-10-12T06:42:58.331Z,5.25
2022-10-12T06:46:01.054Z,5.34
2022-10-12T06:49:02.892Z,5.40
2022-10-12T06:52:04.699Z,5.47
2022-10-12T06:55:08.546Z,5.52
2022-10-12T06:58:10.235Z,5.61
2022-10-12T07:01:14.957Z,5.66
2022-10-12T07:04:16.628Z,5.79
2022-10-12T07:07:18.390Z,5.90
2022-10-12T07:10:21.357Z,6.03
2022-10-12T07:13:22.938Z,6.14
2022-10-12T07:16:24.685Z,6.21
2022-10-12T07:19:26.224Z,6.30
2022-10-12T07:22:27.833Z,6.38
2022-10-12T07:25:35.445Z,6.45
2022-10-12T07:28:37.499Z,6.55
2022-10-12T07:31:39.217Z,6.59
2022-10-12T07:34:41.919Z,6.67
2022-10-12T07:37:43.514Z,6.76
2022-10-12T07:40:46.550Z,6.88
2022-10-12T07:43:48.313Z,7.00
2022-10-12T07:46:49.887Z,7.01
2022-10-12T07:49:51.469Z,7.04
2022-10-12T07:52:53.189Z,7.18
2022-10-12T07:56:00.934Z,7.18
2022-10-12T07:59:02.647Z,7.26
2022-10-12T08:02:04.388Z,7.28
2022-10-12T08:05:06.616Z,7.31
2022-10-12T08:08:12.249Z,7.35
2022-10-12T08:11:15.291Z,7.42
2022-10-12T08:14:17.114Z,7.57
2022-10-12T08:17:18.767Z,7.74
2022-10-12T08:20:20.571Z,7.80
2022-10-12T08:23:22.719Z,7.96
2022-10-12T08:26:27.787Z,7.95
2022-10-12T08:29:29.321Z,8.03
2022-10-12T08:32:31.730Z,8.19
2022-10-12T08:35:33.525Z,8.30
2022-10-12T08:38:35.397Z,8.45
2022-10-12T08:41:44.946Z,8.56
2022-10-12T08:44:54.975Z,8.60
2022-10-12T08:48:01.407Z,8.70
2022-10-12T08:51:05.480Z,8.59
2022-10-12T08:54:08.703Z,8.58
2022-10-12T08:57:18.758Z,8.64
2022-10-12T09:00:20.483Z,8.75
2022-10-12T09:03:27.993Z,8.68
2022-10-12T09:06:33.661Z,8.66
2022-10-12T09:09:43.940Z,8.64
2022-10-12T09:12:52.498Z,8.69
2022-10-12T09:15:57.326Z,8.77
2022-10-12T09:19:01.210Z,8.87
2022-10-12T09:22:03.412Z,8.97
2022-10-12T09:25:06.521Z,9.14
2022-10-12T09:28:14.164Z,9.44
2022-10-12T09:31:29.123Z,9.66
2022-10-12T09:34:31.001Z,9.86
2022-10-12T09:37:33.267Z,9.88
2022-10-12T09:40:36.928Z,9.96
2022-10-12T09:43:41.696Z,10.10
2022-10-12T09:46:46.769Z,10.18
2022-10-12T09:49:52.610Z,10.25
2022-10-12T09:52:55.241Z,10.32
2022-10-12T09:55:58.710Z,10.31
2022-10-12T09:59:01.333Z,10.53
2022-10-12T10:02:13.419Z,10.68
2022-10-12T10:05:24.939Z,10.79
2022-10-12T10:08:26.764Z,10.85
2022-10-12T10:11:31.823Z,10.97
2022-10-12T10:14:33.989Z,10.96
2022-10-12T10:17:37.098Z,11.07
2022-10-12T10:20:42.393Z,11.17
2022-10-12T10:27:02.383Z,11.59
2022-10-12T10:34:13.882Z,11.96
2022-10-12T10:37:18.722Z,11.97
2022-10-12T10:40:22.683Z,12.06
2022-10-12T10:43:27.508Z,12.14
2022-10-12T10:46:31.206Z,12.14
2022-10-12T10:49:39.675Z,12.25
2022-10-12T10:52:41.377Z,12.42
2022-10-12T10:55:45.194Z,12.64
2022-10-12T10:58:48.853Z,12.56
2022-10-12T11:01:54.687Z,12.73
2022-10-12T11:05:03.278Z,12.81
2022-10-12T11:08:06.172Z,12.82
2022-10-12T11:11:10.943Z,12.71
2022-10-12T11:14:14.877Z,12.83
2022-10-12T11:17:18.587Z,13.02
2022-10-12T11:20:36.963Z,13.17
2022-10-12T11:23:42.303Z,13.22
2022-10-12T11:26:47.727Z,13.27
2022-10-12T11:30:02.889Z,13.44
2022-10-12T11:33:12.443Z,13.60
2022-10-12T11:36:19.678Z,13.60
2022-10-12T11:39:27.423Z,13.23
2022-10-12T11:42:31.211Z,13.52
2022-10-12T11:45:37.895Z,13.69
2022-10-12T11:48:42.322Z,13.56
2022-10-12T11:51:47.795Z,13.43
2022-10-12T11:54:53.887Z,13.69
2022-10-12T11:57:57.031Z,13.77
2022-10-12T12:01:13.481Z,14.06
2022-10-12T12:04:40.740Z,14.18
2022-10-12T12:07:48.905Z,14.05
2022-10-12T12:10:51.424Z,13.86
2022-10-12T12:14:17.130Z,14.14
2022-10-12T12:17:25.821Z,14.35
2022-10-12T12:20:51.373Z,14.31
2022-10-12T12:23:56.829Z,14.25
2022-10-12T12:26:58.580Z,14.43
2022-10-12T12:30:01.576Z,14.23
2022-10-12T12:33:05.089Z,13.95
2022-10-12T12:36:08.311Z,13.90
2022-10-12T12:39:20.403Z,13.95
2022-10-12T12:42:23.940Z,13.93
2022-10-12T12:45:38.776Z,13.88
2022-10-12T12:48:59.512Z,13.77
2022-10-12T12:52:01.424Z,13.70
2022-10-12T12:55:18.828Z,13.81
2022-10-12T12:58:30.195Z,13.79
2022-10-12T13:01:44.158Z,13.56
2022-10-12T13:05:13.122Z,13.44
2022-10-12T13:08:24.777Z,13.27
2022-10-12T13:11:35.459Z,13.27
2022-10-12T13:14:51.463Z,13.32
2022-10-12T13:18:04.414Z,13.41
2022-10-12T13:21:08.191Z,13.74
2022-10-12T13:24:15.121Z,13.86
2022-10-12T13:27:20.495Z,13.81
2022-10-12T13:30:26.676Z,13.68
2022-10-12T13:33:32.432Z,13.59
2022-10-12T13:36:36.789Z,13.55
2022-10-12T13:39:39.530Z,13.51
2022-10-12T13:42:43.149Z,13.58
2022-10-12T13:45:45.171Z,13.74
2022-10-12T13:48:59.663Z,13.66
2022-10-12T13:52:03.264Z,13.47
2022-10-12T13:55:15.591Z,13.45
2022-10-12T13:58:24.054Z,13.41
2022-10-12T14:01:25.636Z,13.44
2022-10-12T14:04:29.050Z,13.49
2022-10-12T14:07:32.647Z,13.63
2022-10-12T14:10:35.250Z,13.73
2022-10-12T14:13:38.524Z,13.69
2022-10-12T14:16:43.174Z,13.77
2022-10-12T14:19:45.584Z,13.76
2022-10-12T14:22:48.760Z,13.73
2022-10-12T14:25:51.153Z,13.70
2022-10-12T14:28:54.545Z,13.57
2022-10-12T14:31:57.518Z,13.59
2022-10-12T14:35:10.858Z,13.62
2022-10-12T14:38:30.798Z,13.52
2022-10-12T14:41:34.540Z,13.40
2022-10-12T14:44:44.484Z,13.36
2022-10-12T14:47:46.316Z,13.40
2022-10-12T14:50:48.149Z,13.40
2022-10-12T14:53:57.566Z,13.36
2022-10-12T14:57:02.101Z,13.35
2022-10-12T15:00:05.813Z,13.34
2022-10-12T15:03:07.538Z,13.34
2022-10-12T15:06:11.887Z,13.29
2022-10-12T15:09:13.440Z,13.30
2022-10-12T15:12:16.347Z,13.26
2022-10-12T15:15:28.839Z,13.23
2022-10-12T15:18:30.676Z,13.22
2022-10-12T15:21:32.686Z,13.18
2022-10-12T15:24:34.600Z,13.13
2022-10-12T15:27:36.337Z,13.14
2022-10-12T15:30:52.213Z,13.11
2022-10-12T15:34:00.211Z,13.09
2022-10-12T15:37:06.503Z,13.05
2022-10-12T15:40:11.034Z,13.01
2022-10-12T15:43:13.595Z,13.00
2022-10-12T15:46:16.829Z,12.95
2022-10-12T15:49:19.913Z,12.88
2022-10-12T15:52:22.336Z,12.83
2022-10-12T15:55:24.880Z,12.78
2022-10-12T15:58:26.474Z,12.70
2022-10-12T16:01:30.448Z,12.57
2022-10-12T16:04:31.936Z,12.40
2022-10-12T16:07:33.526Z,12.28
2022-10-12T16:10:37.176Z,12.10
2022-10-12T16:13:46.821Z,11.98
2022-10-12T16:16:52.776Z,11.85
2022-10-12T16:19:54.872Z,11.76
2022-10-12T16:22:56.579Z,11.66
2022-10-12T16:25:58.708Z,11.56
2022-10-12T16:29:00.437Z,11.46
2022-10-12T16:32:03.358Z,11.36
2022-10-12T16:35:05.872Z,11.24
2022-10-12T16:38:09.258Z,11.13
2022-10-12T16:41:12.691Z,11.05
2022-10-12T16:44:14.191Z,10.96
2022-10-12T16:47:17.154Z,10.84
2022-10-12T16:50:19.172Z,10.73
2022-10-12T16:53:20.833Z,10.66
2022-10-12T16:56:22.444Z,10.62
2022-10-12T16:59:24.321Z,10.52
2022-10-12T17:02:30.784Z,10.39
2022-10-12T17:05:32.574Z,10.35
2022-10-12T17:08:35.570Z,10.30
2022-10-12T17:11:38.711Z,10.21
2022-10-12T17:14:40.462Z,10.14
2022-10-12T17:17:45.460Z,10.09
2022-10-12T17:20:49.418Z,10.04
2022-10-12T17:23:55.837Z,9.99
2022-10-12T17:26:58.036Z,9.96
2022-10-12T17:29:59.799Z,10.01
2022-10-12T17:33:02.974Z,9.98
2022-10-12T17:36:05.799Z,9.93
2022-10-12T17:39:07.393Z,10.02
2022-10-12T17:42:09.258Z,9.97
2022-10-12T17:45:11.159Z,9.95
2022-10-12T17:48:15.516Z,9.83
2022-10-12T17:51:18.515Z,9.68
2022-10-12T17:54:21.159Z,9.64
2022-10-12T17:57:22.838Z,9.64
2022-10-12T18:00:26.760Z,9.63
2022-10-12T18:03:29.706Z,9.61
2022-10-12T18:06:32.937Z,9.57
2022-10-12T18:09:34.794Z,9.47
2022-10-12T18:12:36.816Z,9.40
2022-10-12T18:15:42.156Z,9.43
2022-10-12T18:18:45.356Z,9.37
2022-10-12T18:21:46.838Z,9.30
2022-10-12T18:24:49.028Z,9.28
2022-10-12T18:27:51.747Z,9.27
2022-10-12T18:30:53.307Z,9.30
2022-10-12T18:33:57.715Z,9.31
2022-10-12T18:36:59.300Z,9.34
2022-10-12T18:40:00.970Z,9.46
2022-10-12T18:43:03.048Z,9.48
2022-10-12T18:46:08.038Z,9.45
2022-10-12T18:49:11.405Z,9.61
2022-10-12T18:52:12.866Z,9.65
2022-10-12T18:55:14.640Z,9.74
2022-10-12T18:58:16.256Z,9.77
2022-10-12T19:01:19.251Z,9.87
2022-10-12T19:04:22.204Z,9.97
2022-10-12T19:07:23.711Z,9.93
2022-10-12T19:10:25.283Z,9.96
2022-10-12T19:13:26.841Z,9.96
2022-10-12T19:16:30.853Z,9.95
2022-10-12T19:19:33.948Z,9.98
2022-10-12T19:22:35.838Z,10.00
2022-10-12T19:25:38.314Z,9.92
2022-10-12T19:28:40.156Z,9.95
2022-10-12T19:31:43.856Z,10.06
2022-10-12T19:34:48.953Z,10.07
2022-10-12T19:37:50.600Z,10.01
2022-10-12T19:40:52.311Z,9.94
2022-10-12T19:43:54.077Z,9.90
2022-10-12T19:46:57.778Z,9.84
2022-10-12T19:50:01.610Z,9.78
2022-10-12T19:53:03.361Z,9.74
2022-10-12T19:56:06.103Z,9.72
2022-10-12T19:59:07.706Z,9.75
2022-10-12T20:02:09.905Z,9.82
2022-10-12T20:05:12.961Z,9.88
2022-10-12T20:08:18.046Z,9.91
2022-10-12T20:11:24.361Z,9.85
2022-10-12T20:14:26.743Z,9.76
2022-10-12T20:17:28.269Z,9.66
2022-10-12T20:20:31.307Z,9.58
2022-10-12T20:23:33.975Z,9.54
2022-10-12T20:26:35.720Z,9.51
2022-10-12T20:29:37.342Z,9.63
2022-10-12T20:32:39.035Z,9.76
2022-10-12T20:35:47.215Z,9.82
2022-10-12T20:38:48.969Z,9.84
2022-10-12T20:41:50.451Z,9.84
2022-10-12T20:44:51.975Z,9.74
2022-10-12T20:47:53.637Z,9.68
2022-10-12T20:50:56.820Z,9.65
2022-10-12T20:54:01.465Z,9.66
2022-10-12T20:57:03.114Z,9.67
2022-10-12T21:00:05.768Z,9.74
2022-10-12T21:03:07.536Z,9.77
2022-10-12T21:06:12.294Z,9.80
2022-10-12T21:09:14.668Z,9.70
2022-10-12T21:12:16.601Z,9.59
2022-10-12T21:15:18.392Z,9.46
2022-10-12T21:18:21.136Z,9.38
2022-10-12T21:21:24.356Z,9.39
2022-10-12T21:24:25.886Z,9.44
2022-10-12T21:27:27.642Z,9.44
2022-10-12T21:30:29.194Z,9.41
2022-10-12T21:33:30.856Z,9.40
2022-10-12T21:36:35.480Z,9.46
2022-10-12T21:39:37.234Z,9.53
2022-10-12T21:42:40.592Z,9.53
2022-10-12T21:45:42.214Z,9.54
2022-10-12T21:48:49.943Z,9.56
2022-10-12T21:51:52.947Z,9.59
2022-10-12T21:54:54.571Z,9.55
2022-10-12T21:57:56.170Z,9.55
2022-10-12T22:01:03.611Z,9.59
2022-10-12T22:04:06.305Z,9.65
2022-10-12T22:07:09.398Z,9.68
2022-10-12T22:10:11.314Z,9.74
2022-10-12T22:13:12.917Z,9.78
2022-10-12T22:16:18.675Z,9.71
2022-10-12T22:19:21.003Z,9.73
2022-10-12T22:22:24.386Z,9.70
2022-10-12T22:25:25.904Z,9.62
2022-10-12T22:28:27.768Z,9.64
2022-10-12T22:31:30.233Z,9.66
2022-10-12T22:34:32.115Z,9.72
2022-10-12T22:37:35.492Z,9.70
2022-10-12T22:40:37.189Z,9.63
2022-10-12T22:43:39.556Z,9.63
2022-10-12T22:46:41.331Z,9.66
2022-10-12T22:49:43.118Z,9.68
2022-10-12T22:52:51.209Z,9.62
2022-10-12T22:55:57.347Z,9.50
2022-10-12T22:59:00.532Z,9.41
2022-10-12T23:02:02.087Z,9.35
2022-10-12T23:05:04.193Z,9.30
2022-10-12T23:08:07.271Z,9.29
2022-10-12T23:11:12.678Z,9.24
2022-10-12T23:14:14.377Z,9.21
2022-10-12T23:17:16.415Z,9.23
2022-10-12T23:20:18.164Z,9.17
2022-10-12T23:23:21.693Z,9.20
2022-10-12T23:26:24.508Z,9.24
2022-10-12T23:29:26.105Z,9.22
2022-10-12T23:32:29.459Z,9.11
2022-10-12T23:35:31.183Z,9.04
2022-10-12T23:38:34.775Z,9.00
2022-10-12T23:41:36.914Z,8.87
2022-10-12T23:44:38.463Z,8.78
2022-10-12T23:47:40.185Z,8.75
2022-10-12T23:50:41.851Z,8.73
2022-10-12T23:53:45.119Z,8.70
2022-10-12T23:56:46.705Z,8.74
2022-10-12T23:59:48.401Z,8.75
